Danville, CA

11:46 PM PST on December 08, 2016 (GMT -0800)
OakRidge | | Change Station

Elev 741 ft 37.82 °N, 121.92 °W | Updated 1 minute ago

Overcast
Overcast
55.1 °F
Feels Like 55.1 °F
N
0.0
Wind Variable Wind from North
Gusts 0.0 mph

Today
High -- | Low -- °F
--% Chance of Precip.
Yesterday
High -- | Low -- °F
Precip. -- in
Pressure 30.21 in
Visibility 5.0 miles
Clouds Few 800 ft
Mostly Cloudy 1700 ft
Overcast 2200 ft
Dew Point 55 °F
Humidity 99%
Rainfall 0.54 in
Snow Depth Not available.
7:11 AM 4:48 PM
Waxing Gibbous, 71% visible
SPECI KLVK 090727Z 22005KT 5SM BR FEW008 BKN017 OVC022 13/12 A3021 RMK AO2 T01330122
Pressure 30.21 in
Visibility 5.0 miles
Clouds Few 800 ft
Mostly Cloudy 1700 ft
Overcast 2200 ft
Dew Point 55 °F
Humidity 99%
Rainfall 0.54 in
Snow Depth Not available.
7:11 AM 4:48 PM
Waxing Gibbous, 71% visible
SPECI KLVK 090727Z 22005KT 5SM BR FEW008 BKN017 OVC022 13/12 A3021 RMK AO2 T01330122

10-Day Weather Forecast

Almanac

Astronomy

Dec. 08, 2016 Rise Set
Actual Time
Civil Twilight
Nautical Twilight
Astronomical Twilight
Moon
Length of Visible Light
Length of Day
Tomorrow will be .
, % of the Moon is Illuminated

Today's Extremes

State Highs State Lows

Community

WunderPhotos

Upload Photos

1,956,374 photos uploaded!

WunderBlog® & News

Nearby

Air Quality

  Air Quality AQ Index Pollutant
Not available.

Snow Depth

Station Depth Elevation

Earthquake Activity

City Distance Mag. Time & Date
Minimum magnitude displayed is 2.5.

Coastal Water Temperatures

Place Temperature

Stations

Nearby Weather Stations

Station Location Temp. Windchill Dew Point Humidity Wind Precip. Elev Updated Type
                   

Watches & Warnings

There are currently no watches in effect.